^^
Station Historical Data
Daily Summary for May 2, 2021 Units:  English    Metric   Both
Daily Weekly Monthly Yearly
  High: Low: Average:
Temperature: 72.4 °F 47.7 °F 57.5 °F
Dew Point: 55.8 °F 42.3 °F 48 °F
Humidity: 87% 55% 71%
Wind Speed: 10mph 0mph 3.4mph
Wind Gust: 14mph - -
Wind- - ESE
Pressure: 29.67 in 29.51 in -
Precipitation: 0.00 in    
 
 
Tabular Data for May 2, 2021
Time Temperature Dew Point Pressure Wind Wind Speed Wind Gust Humidity Rainfall Rate (Hourly) solar
00:00 53.7 °F 47 °F 29.54 in Calm     78% 0.00 in 0 W/m2
00:05 53.6 °F 46.9 °F 29.54 in Calm     78% 0.00 in 0 W/m2
00:10 53.6 °F 46.9 °F 29.54 in SW 1 mph 1 mph 78% 0.00 in 0 W/m2
00:15 53.5 °F 46.8 °F 29.54 in SW 1 mph 1 mph 78% 0.00 in 0 W/m2
00:20 53.6 °F 46.6 °F 29.54 in SW 1 mph 1 mph 77% 0.00 in 0 W/m2
00:25 53.6 °F 46.6 °F 29.54 in Calm   1 mph 77% 0.00 in 0 W/m2
00:30 53.7 °F 46.7 °F 29.54 in Calm   1 mph 77% 0.00 in 0 W/m2
00:35 53.9 °F 46.5 °F 29.54 in SSW 1 mph 1 mph 76% 0.00 in 0 W/m2
00:40 54.5 °F 46.7 °F 29.54 in NW 1 mph 1 mph 75% 0.00 in 0 W/m2
00:45 54.7 °F 46.9 °F 29.54 in South 1 mph 1 mph 75% 0.00 in 0 W/m2
00:50 54.7 °F 47.3 °F 29.54 in Calm   2 mph 76% 0.00 in 0 W/m2
00:55 54.7 °F 46.9 °F 29.55 in Calm   2 mph 75% 0.00 in 0 W/m2
01:00 54.7 °F 46.9 °F 29.55 in South 1 mph 1 mph 75% 0.00 in 0 W/m2
01:05 54.7 °F 46.9 °F 29.54 in South 1 mph 1 mph 75% 0.00 in 0 W/m2
01:10 54.9 °F 47.1 °F 29.54 in South 1 mph 1 mph 75% 0.00 in 0 W/m2
01:15 55.1 °F 47.7 °F 29.54 in Calm   1 mph 76% 0.00 in 0 W/m2
01:20 55.2 °F 48.1 °F 29.54 in Calm   1 mph 77% 0.00 in 0 W/m2
01:25 55.3 °F 48.6 °F 29.54 in North 1 mph 1 mph 78% 0.00 in 0 W/m2
01:30 55.5 °F 48.4 °F 29.54 in NE 1 mph 2 mph 77% 0.00 in 0 W/m2
01:35 55.7 °F 48.9 °F 29.54 in NNW 2 mph 3 mph 78% 0.00 in 0 W/m2
01:40 55.8 °F 48.7 °F 29.54 in NNW 2 mph 2 mph 77% 0.00 in 0 W/m2
01:45 55.9 °F 49.1 °F 29.54 in NNW 2 mph 2 mph 78% 0.00 in 0 W/m2
01:50 55.9 °F 49.1 °F 29.53 in NNW 2 mph 2 mph 78% 0.00 in 0 W/m2
01:55 56 °F 49.2 °F 29.53 in North 3 mph 3 mph 78% 0.00 in 0 W/m2
02:00 56 °F 49.2 °F 29.53 in North 2 mph 3 mph 78% 0.00 in 0 W/m2
02:05 56 °F 49.2 °F 29.53 in SSW 2 mph 5 mph 78% 0.00 in 0 W/m2
02:10 56.1 °F 49.3 °F 29.52 in North 2 mph 3 mph 78% 0.00 in 0 W/m2
02:15 56.2 °F 49.4 °F 29.53 in NNE 2 mph 3 mph 78% 0.00 in 0 W/m2
02:20 56.1 °F 49.3 °F 29.52 in ENE 2 mph 3 mph 78% 0.00 in 0 W/m2
02:25 56.2 °F 49.4 °F 29.52 in North 2 mph 3 mph 78% 0.00 in 0 W/m2
02:30 56.2 °F 49.4 °F 29.52 in WNW 3 mph 3 mph 78% 0.00 in 0 W/m2
02:35 56.3 °F 49.5 °F 29.52 in NE 3 mph 3 mph 78% 0.00 in 0 W/m2
02:40 57 °F 49.9 °F 29.52 in SSW 3 mph 3 mph 77% 0.00 in 0 W/m2
02:45 59 °F 50.7 °F 29.51 in SW 5 mph 6 mph 74% 0.00 in 0 W/m2
02:50 60.1 °F 50.7 °F 29.51 in South 7 mph 9 mph 71% 0.00 in 0 W/m2
02:55 60.6 °F 50.8 °F 29.52 in SSW 9 mph 10 mph 70% 0.00 in 0 W/m2
03:00 60.9 °F 50.7 °F 29.52 in SW 10 mph 10 mph 69% 0.00 in 0 W/m2
03:05 61.2 °F 50.9 °F 29.52 in SSW 10 mph 10 mph 69% 0.00 in 0 W/m2
03:10 60.9 °F 51 °F 29.52 in SW 9 mph 9 mph 70% 0.00 in 0 W/m2
03:15 60.7 °F 50.9 °F 29.53 in SW 8 mph 9 mph 70% 0.00 in 0 W/m2
03:20 60.5 °F 51 °F 29.53 in SW 8 mph 8 mph 71% 0.00 in 0 W/m2
03:25 60.2 °F 50.8 °F 29.53 in SW 6 mph 8 mph 71% 0.00 in 0 W/m2
03:30 59.9 °F 50.8 °F 29.53 in SW 4 mph 5 mph 72% 0.00 in 0 W/m2
03:35 59.6 °F 50.9 °F 29.53 in WSW 4 mph 5 mph 73% 0.00 in 0 W/m2
03:40 59.3 °F 49.9 °F 29.55 in NW 4 mph 5 mph 71% 0.00 in 0 W/m2
03:45 58.9 °F 49.5 °F 29.55 in NNW 5 mph 5 mph 71% 0.00 in 0 W/m2
03:50 58.7 °F 49.3 °F 29.55 in NW 4 mph 4 mph 71% 0.00 in 0 W/m2
03:55 58.4 °F 49 °F 29.55 in NW 4 mph 4 mph 71% 0.00 in 0 W/m2
04:00 58.3 °F 48.9 °F 29.56 in NW 3 mph 3 mph 71% 0.00 in 0 W/m2
04:05 58 °F 48.6 °F 29.56 in NW 3 mph 3 mph 71% 0.00 in 0 W/m2
04:10 57.8 °F 48.5 °F 29.56 in NW 3 mph 3 mph 71% 0.00 in 0 W/m2
04:15 57.5 °F 48.2 °F 29.56 in NNW 3 mph 3 mph 71% 0.00 in 0 W/m2
04:20 57 °F 47.7 °F 29.56 in NNW 2 mph 4 mph 71% 0.00 in 0 W/m2
04:25 56.4 °F 47.1 °F 29.56 in NNW 2 mph 4 mph 71% 0.00 in 0 W/m2
04:30 55.7 °F 46.8 °F 29.57 in NNW 2 mph 2 mph 72% 0.00 in 0 W/m2
04:35 54.9 °F 46.4 °F 29.58 in NNW 3 mph 3 mph 73% 0.00 in 0 W/m2
04:40 53.5 °F 45.1 °F 29.58 in North 4 mph 4 mph 73% 0.00 in 0 W/m2
04:45 52.1 °F 43.7 °F 29.58 in NNW 4 mph 4 mph 73% 0.00 in 0 W/m2
04:50 51.1 °F 43.4 °F 29.58 in NW 2 mph 2 mph 75% 0.00 in 0 W/m2
04:55 50.6 °F 43.7 °F 29.58 in NW 1 mph 2 mph 77% 0.00 in 0 W/m2
05:00 50.1 °F 43.5 °F 29.58 in NNW 1 mph 3 mph 78% 0.00 in 0 W/m2
05:05 49.7 °F 43.8 °F 29.58 in North 2 mph 3 mph 80% 0.00 in 0 W/m2
05:10 49.1 °F 43.5 °F 29.58 in North 2 mph 3 mph 81% 0.00 in 0 W/m2
05:15 48.5 °F 42.9 °F 29.58 in NNW 3 mph 3 mph 81% 0.00 in 0 W/m2
05:20 48.2 °F 42.6 °F 29.59 in NNE 3 mph 3 mph 81% 0.00 in 0 W/m2
05:25 48 °F 42.8 °F 29.59 in NW 2 mph 3 mph 82% 0.00 in 0 W/m2
05:30 47.8 °F 42.6 °F 29.59 in NNW 2 mph 2 mph 82% 0.00 in 0 W/m2
05:35 47.7 °F 42.8 °F 29.59 in East 2 mph 3 mph 83% 0.00 in 0 W/m2
05:40 47.7 °F 42.8 °F 29.59 in NE 2 mph 2 mph 83% 0.00 in 0 W/m2
05:45 47.7 °F 42.8 °F 29.59 in ENE 2 mph 2 mph 83% 0.00 in 0 W/m2
05:50 47.8 °F 42.9 °F 29.59 in NE 2 mph 2 mph 83% 0.00 in 0 W/m2
05:55 47.9 °F 43 °F 29.59 in NE 2 mph 2 mph 83% 0.00 in 0 W/m2
06:00 48 °F 43.1 °F 29.59 in NE 2 mph 2 mph 83% 0.00 in 0 W/m2
06:05 48.1 °F 43.2 °F 29.59 in NE 2 mph 2 mph 83% 0.00 in 0 W/m2
06:10 48.3 °F 43.7 °F 29.59 in East 2 mph 2 mph 84% 0.00 in 0 W/m2
06:15 48.5 °F 43.9 °F 29.60 in ENE 2 mph 2 mph 84% 0.00 in 0 W/m2
06:20 48.5 °F 43.9 °F 29.60 in ENE 1 mph 4 mph 84% 0.00 in 0 W/m2
06:25 48.5 °F 43.6 °F 29.60 in ENE 1 mph 4 mph 83% 0.00 in 5 W/m2
06:30 48.6 °F 43.7 °F 29.61 in East 1 mph 4 mph 83% 0.00 in 7 W/m2
06:35 48.6 °F 43.7 °F 29.61 in North 2 mph 4 mph 83% 0.00 in 11 W/m2
06:40 48.5 °F 43.3 °F 29.62 in NNW 2 mph 4 mph 82% 0.00 in 14 W/m2
06:45 48.5 °F 43.3 °F 29.62 in North 2 mph 4 mph 82% 0.00 in 14 W/m2
06:50 48.3 °F 42.7 °F 29.62 in ENE 2 mph 3 mph 81% 0.00 in 16 W/m2
06:55 48.2 °F 42.3 °F 29.62 in NE 2 mph 3 mph 80% 0.00 in 25 W/m2
07:00 48.2 °F 42.6 °F 29.62 in ENE 3 mph 3 mph 81% 0.00 in 32 W/m2
07:05 48.2 °F 42.6 °F 29.62 in NE 2 mph 3 mph 81% 0.00 in 39 W/m2
07:10 48.3 °F 42.7 °F 29.62 in ENE 2 mph 2 mph 81% 0.00 in 44 W/m2
07:15 48.4 °F 43.2 °F 29.62 in NE 2 mph 2 mph 82% 0.00 in 51 W/m2
07:20 48.5 °F 43.3 °F 29.62 in NE 2 mph 3 mph 82% 0.00 in 47 W/m2
07:25 48.7 °F 43.5 °F 29.63 in ENE 1 mph 3 mph 82% 0.00 in 60 W/m2
07:30 48.8 °F 43.5 °F 29.63 in ENE 2 mph 2 mph 82% 0.00 in 54 W/m2
07:35 49 °F 43.4 °F 29.63 in ENE 2 mph 2 mph 81% 0.00 in 72 W/m2
07:40 49.2 °F 43.3 °F 29.63 in East 2 mph 3 mph 80% 0.00 in 93 W/m2
07:45 49.6 °F 43 °F 29.63 in ENE 2 mph 3 mph 78% 0.00 in 47 W/m2
07:50 49.9 °F 43 °F 29.63 in East 2 mph 2 mph 77% 0.00 in 86 W/m2
07:55 50.2 °F 42.9 °F 29.63 in East 2 mph 4 mph 76% 0.00 in 114 W/m2
08:00 50.7 °F 43.1 °F 29.63 in ENE 3 mph 3 mph 75% 0.00 in 144 W/m2
08:05 51.2 °F 43.2 °F 29.64 in NE 3 mph 3 mph 74% 0.00 in 120 W/m2
08:10 51.7 °F 43.3 °F 29.64 in East 3 mph 5 mph 73% 0.00 in 88 W/m2
08:15 51.9 °F 43.2 °F 29.64 in ENE 3 mph 5 mph 72% 0.00 in 84 W/m2
08:20 52.1 °F 43.3 °F 29.64 in ENE 3 mph 3 mph 72% 0.00 in 192 W/m2
08:25 52.3 °F 43.2 °F 29.63 in NE 3 mph 3 mph 71% 0.00 in 84 W/m2
08:30 52.4 °F 43.3 °F 29.62 in East 4 mph 4 mph 71% 0.00 in 281 W/m2
08:35 52.6 °F 43.1 °F 29.64 in East 4 mph 4 mph 70% 0.00 in 313 W/m2
08:40 52.9 °F 43.4 °F 29.64 in ENE 4 mph 4 mph 70% 0.00 in 323 W/m2
08:45 53.4 °F 43.1 °F 29.64 in ENE 4 mph 5 mph 68% 0.00 in 336 W/m2
08:50 53.9 °F 43.6 °F 29.65 in ESE 3 mph 4 mph 68% 0.00 in 411 W/m2
08:55 54.7 °F 44 °F 29.65 in SE 3 mph 4 mph 67% 0.00 in 401 W/m2
09:00 55.3 °F 44.1 °F 29.65 in East 2 mph 3 mph 66% 0.00 in 135 W/m2
09:05 55.6 °F 44.4 °F 29.65 in ENE 3 mph 3 mph 66% 0.00 in 109 W/m2
09:10 55.6 °F 44.4 °F 29.65 in ENE 3 mph 3 mph 66% 0.00 in 130 W/m2
09:15 55.5 °F 44.7 °F 29.65 in NNE 3 mph 3 mph 67% 0.00 in 116 W/m2
09:20 55.2 °F 45.6 °F 29.65 in NNE 2 mph 2 mph 70% 0.00 in 125 W/m2
09:25 54.8 °F 45.6 °F 29.65 in East 2 mph 6 mph 71% 0.00 in 234 W/m2
09:30 54.1 °F 45.6 °F 29.64 in East 2 mph 3 mph 73% 0.00 in 158 W/m2
09:35 53.5 °F 45.4 °F 29.64 in NE 3 mph 3 mph 74% 0.00 in 111 W/m2
09:40 53.2 °F 45.5 °F 29.65 in NNE 2 mph 2 mph 75% 0.00 in 508 W/m2
09:45 53.2 °F 46.2 °F 29.65 in ENE 2 mph 2 mph 77% 0.00 in 628 W/m2
09:50 53.2 °F 45.8 °F 29.65 in NE 3 mph 3 mph 76% 0.00 in 176 W/m2
09:55 53 °F 45.6 °F 29.65 in NE 3 mph 3 mph 76% 0.00 in 195 W/m2
10:00 53 °F 46 °F 29.66 in NE 2 mph 2 mph 77% 0.00 in 578 W/m2
10:05 53.3 °F 46.3 °F 29.65 in NE 3 mph 3 mph 77% 0.00 in 531 W/m2
10:10 54.1 °F 46 °F 29.65 in ESE 3 mph 3 mph 74% 0.00 in 538 W/m2
10:15 55.5 °F 46.6 °F 29.65 in East 3 mph 3 mph 72% 0.00 in 773 W/m2
10:20 57 °F 46.5 °F 29.64 in ESE 4 mph 6 mph 68% 0.00 in 294 W/m2
10:25 57.9 °F 46.2 °F 29.65 in ESE 5 mph 6 mph 65% 0.00 in 304 W/m2
10:30 58.5 °F 46.4 °F 29.65 in ESE 6 mph 8 mph 64% 0.00 in 392 W/m2
10:35 59.1 °F 46.9 °F 29.64 in ENE 6 mph 8 mph 64% 0.00 in 580 W/m2
10:40 60 °F 47.4 °F 29.63 in ESE 6 mph 6 mph 63% 0.00 in 471 W/m2
10:45 60.3 °F 47.6 °F 29.65 in ESE 5 mph 10 mph 63% 0.00 in 234 W/m2
10:50 60.7 °F 47.2 °F 29.65 in ESE 5 mph 5 mph 61% 0.00 in 621 W/m2
10:55 61 °F 47.4 °F 29.64 in ESE 5 mph 5 mph 61% 0.00 in 438 W/m2
11:00 61.7 °F 48.1 °F 29.65 in SE 5 mph 5 mph 61% 0.00 in 816 W/m2
11:05 62.1 °F 47.1 °F 29.65 in East 6 mph 8 mph 58% 0.00 in 364 W/m2
11:10 62.2 °F 47.7 °F 29.65 in East 6 mph 6 mph 59% 0.00 in 526 W/m2
11:15 62.2 °F 46.3 °F 29.65 in ESE 6 mph 7 mph 56% 0.00 in 350 W/m2
11:20 62.4 °F 46.5 °F 29.65 in East 6 mph 6 mph 56% 0.00 in 403 W/m2
11:25 61.8 °F 46.9 °F 29.65 in ESE 6 mph 8 mph 58% 0.00 in 330 W/m2
11:30 61.4 °F 47.4 °F 29.65 in ESE 5 mph 5 mph 60% 0.00 in 338 W/m2
11:35 61.9 °F 47.9 °F 29.66 in ESE 5 mph 5 mph 60% 0.00 in 360 W/m2
11:40 62.1 °F 47.6 °F 29.66 in ESE 5 mph 5 mph 59% 0.00 in 316 W/m2
11:45 62.4 °F 47.9 °F 29.66 in East 5 mph 5 mph 59% 0.00 in 218 W/m2
11:50 62.4 °F 48.3 °F 29.66 in SE 5 mph 5 mph 60% 0.00 in 163 W/m2
11:55 62.2 °F 47.7 °F 29.66 in ESE 5 mph 5 mph 59% 0.00 in 160 W/m2
12:00 62.1 °F 47.6 °F 29.67 in East 5 mph 5 mph 59% 0.00 in 241 W/m2
12:05 62.2 °F 48.6 °F 29.67 in ESE 5 mph 5 mph 61% 0.00 in 543 W/m2
12:10 62.8 °F 48.7 °F 29.67 in SE 5 mph 5 mph 60% 0.00 in 380 W/m2
12:15 62.1 °F 48.9 °F 29.66 in ESE 5 mph 5 mph 62% 0.00 in 255 W/m2
12:20 62.2 °F 49.4 °F 29.65 in SSE 4 mph 5 mph 63% 0.00 in 243 W/m2
12:25 62.5 °F 48.4 °F 29.65 in ESE 5 mph 7 mph 60% 0.00 in 223 W/m2
12:30 62.6 °F 49.4 °F 29.65 in ESE 5 mph 5 mph 62% 0.00 in 274 W/m2
12:35 62.7 °F 48.6 °F 29.66 in ESE 5 mph 6 mph 60% 0.00 in 332 W/m2
12:40 62.9 °F 49.7 °F 29.66 in East 4 mph 6 mph 62% 0.00 in 290 W/m2
12:45 63.1 °F 49 °F 29.66 in SSE 4 mph 7 mph 60% 0.00 in 253 W/m2
12:50 63.3 °F 48.7 °F 29.66 in ESE 5 mph 5 mph 59% 0.00 in 431 W/m2
12:55 64.8 °F 50.1 °F 29.65 in ESE 5 mph 6 mph 59% 0.00 in 575 W/m2
13:00 65.6 °F 50.9 °F 29.65 in SE 5 mph 5 mph 59% 0.00 in 540 W/m2
13:05 65.7 °F 50.5 °F 29.65 in ESE 5 mph 6 mph 58% 0.00 in 566 W/m2
13:10 65.8 °F 51.1 °F 29.65 in ESE 5 mph 5 mph 59% 0.00 in 489 W/m2
13:15 66.2 °F 50.5 °F 29.64 in ESE 5 mph 7 mph 57% 0.00 in 663 W/m2
13:20 65.9 °F 50.2 °F 29.63 in East 6 mph 6 mph 57% 0.00 in 671 W/m2
13:25 65.6 °F 50 °F 29.63 in SE 6 mph 6 mph 57% 0.00 in 446 W/m2
13:30 64.6 °F 50.8 °F 29.63 in SE 5 mph 5 mph 61% 0.00 in 445 W/m2
13:35 64 °F 51.1 °F 29.63 in ESE 5 mph 7 mph 63% 0.00 in 457 W/m2
13:40 65.9 °F 52.1 °F 29.63 in ESE 5 mph 5 mph 61% 0.00 in 944 W/m2
13:45 66.4 °F 52.1 °F 29.63 in SSE 5 mph 5 mph 60% 0.00 in 867 W/m2
13:50 65.9 °F 52.1 °F 29.62 in SE 4 mph 4 mph 61% 0.00 in 835 W/m2
13:55 66.9 °F 52.1 °F 29.62 in SE 4 mph 7 mph 59% 0.00 in 853 W/m2
14:00 66.6 °F 51.8 °F 29.62 in SE 4 mph 5 mph 59% 0.00 in 826 W/m2
14:05 66.7 °F 52.4 °F 29.62 in SE 4 mph 5 mph 60% 0.00 in 786 W/m2
14:10 67 °F 52.7 °F 29.62 in SE 5 mph 5 mph 60% 0.00 in 835 W/m2
14:15 66.8 °F 52.9 °F 29.62 in SE 5 mph 5 mph 61% 0.00 in 844 W/m2
14:20 67.1 °F 53.2 °F 29.61 in East 5 mph 6 mph 61% 0.00 in 837 W/m2
14:25 68.3 °F 53.4 °F 29.61 in SE 4 mph 6 mph 59% 0.00 in 807 W/m2
14:30 69 °F 54.5 °F 29.61 in ESE 4 mph 4 mph 60% 0.00 in 722 W/m2
14:35 68.8 °F 53.9 °F 29.62 in SSE 4 mph 4 mph 59% 0.00 in 809 W/m2
14:40 68.4 °F 53.5 °F 29.61 in SE 4 mph 4 mph 59% 0.00 in 805 W/m2
14:45 68.6 °F 53.7 °F 29.61 in SE 4 mph 4 mph 59% 0.00 in 758 W/m2
14:50 68 °F 54 °F 29.61 in SE 4 mph 4 mph 61% 0.00 in 766 W/m2
14:55 67.6 °F 53.7 °F 29.61 in SE 4 mph 4 mph 61% 0.00 in 564 W/m2
15:00 68 °F 54 °F 29.61 in SE 4 mph 4 mph 61% 0.00 in 795 W/m2
15:05 70.2 °F 54.7 °F 29.61 in SE 4 mph 4 mph 58% 0.00 in 775 W/m2
15:10 71 °F 55.5 °F 29.61 in ESE 4 mph 6 mph 58% 0.00 in 763 W/m2
15:15 70.2 °F 54.7 °F 29.61 in SE 4 mph 6 mph 58% 0.00 in 786 W/m2
15:20 70 °F 54.5 °F 29.61 in SE 4 mph 4 mph 58% 0.00 in 770 W/m2
15:25 70.4 °F 54.9 °F 29.61 in ESE 4 mph 4 mph 58% 0.00 in 761 W/m2
15:30 71.3 °F 55.3 °F 29.61 in ESE 4 mph 4 mph 57% 0.00 in 756 W/m2
15:35 71.3 °F 55.3 °F 29.61 in SE 4 mph 4 mph 57% 0.00 in 710 W/m2
15:40 71 °F 55.5 °F 29.60 in SE 4 mph 4 mph 58% 0.00 in 675 W/m2
15:45 71.3 °F 55.3 °F 29.60 in ENE 4 mph 4 mph 57% 0.00 in 640 W/m2
15:50 72.3 °F 55.7 °F 29.60 in East 3 mph 3 mph 56% 0.00 in 636 W/m2
15:55 71.8 °F 55.7 °F 29.60 in ENE 3 mph 3 mph 57% 0.00 in 684 W/m2
16:00 70.8 °F 53.8 °F 29.60 in ENE 2 mph 2 mph 55% 0.00 in 642 W/m2
16:05 70.3 °F 54.8 °F 29.60 in ENE 2 mph 3 mph 58% 0.00 in 715 W/m2
16:10 69.2 °F 53.8 °F 29.60 in NE 2 mph 2 mph 58% 0.00 in 578 W/m2
16:15 67.1 °F 53.2 °F 29.60 in ENE 2 mph 3 mph 61% 0.00 in 664 W/m2
16:20 66.9 °F 53.9 °F 29.60 in ENE 2 mph 2 mph 63% 0.00 in 652 W/m2
16:25 68.1 °F 54.6 °F 29.59 in ENE 3 mph 3 mph 62% 0.00 in 517 W/m2
16:30 69.8 °F 54.8 °F 29.59 in East 2 mph 2 mph 59% 0.00 in 582 W/m2
16:35 72.4 °F 55.8 °F 29.59 in ESE 2 mph 2 mph 56% 0.00 in 552 W/m2
16:40 72.3 °F 55.2 °F 29.59 in ENE 3 mph 6 mph 55% 0.00 in 585 W/m2
16:45 70.8 °F 54.3 °F 29.58 in ENE 5 mph 7 mph 56% 0.00 in 554 W/m2
16:50 70.5 °F 54.5 °F 29.58 in ESE 5 mph 7 mph 57% 0.00 in 566 W/m2
16:55 70.5 °F 54.5 °F 29.58 in East 4 mph 7 mph 57% 0.00 in 566 W/m2
17:00 70.6 °F 55.1 °F 29.58 in ESE 4 mph 6 mph 58% 0.00 in 446 W/m2
17:05 69.6 °F 54.2 °F 29.58 in NE 4 mph 6 mph 58% 0.00 in 410 W/m2
17:10 68.7 °F 53.8 °F 29.58 in East 3 mph 3 mph 59% 0.00 in 538 W/m2
17:15 68.5 °F 54.1 °F 29.58 in ENE 4 mph 4 mph 60% 0.00 in 531 W/m2
17:20 68.4 °F 54.4 °F 29.58 in ENE 4 mph 4 mph 61% 0.00 in 257 W/m2
17:25 68.2 °F 54.2 °F 29.59 in NE 4 mph 4 mph 61% 0.00 in 506 W/m2
17:30 68.4 °F 54.4 °F 29.58 in ESE 4 mph 6 mph 61% 0.00 in 483 W/m2
17:35 68.6 °F 54.6 °F 29.58 in East 4 mph 6 mph 61% 0.00 in 462 W/m2
17:40 65.9 °F 52.5 °F 29.59 in ENE 4 mph 4 mph 62% 0.00 in 403 W/m2
17:45 63.6 °F 52 °F 29.59 in East 3 mph 8 mph 66% 0.00 in 376 W/m2
17:50 62.5 °F 51 °F 29.59 in NE 3 mph 4 mph 66% 0.00 in 299 W/m2
17:55 60.9 °F 50.7 °F 29.58 in ENE 3 mph 4 mph 69% 0.00 in 265 W/m2
18:00 60.6 °F 50.8 °F 29.58 in East 3 mph 3 mph 70% 0.00 in 137 W/m2
18:05 60.7 °F 50.9 °F 29.58 in ENE 3 mph 3 mph 70% 0.00 in 132 W/m2
18:10 59.9 °F 49.7 °F 29.58 in ENE 3 mph 3 mph 69% 0.00 in 264 W/m2
18:15 58.2 °F 48.5 °F 29.58 in East 4 mph 4 mph 70% 0.00 in 230 W/m2
18:20 57.1 °F 48.5 °F 29.58 in ENE 4 mph 4 mph 73% 0.00 in 188 W/m2
18:25 56.7 °F 48.5 °F 29.58 in NE 4 mph 4 mph 74% 0.00 in 264 W/m2
18:30 56.4 °F 47.9 °F 29.59 in East 4 mph 8 mph 73% 0.00 in 311 W/m2
18:35 56.1 °F 47.9 °F 29.59 in ENE 4 mph 8 mph 74% 0.00 in 301 W/m2
19:00 54 °F 46.3 °F 29.59 in ENE 3 mph 3 mph 75% 0.00 in 100 W/m2
19:05 53.6 °F 46.2 °F 29.59 in North 3 mph 3 mph 76% 0.00 in 102 W/m2
19:10 53.1 °F 45.7 °F 29.59 in NE 3 mph 4 mph 76% 0.00 in 149 W/m2
19:15 52.6 °F 45.6 °F 29.59 in NE 4 mph 4 mph 77% 0.00 in 84 W/m2
19:20 52.2 °F 45.5 °F 29.59 in East 5 mph 8 mph 78% 0.00 in 104 W/m2
19:25 52.1 °F 45.4 °F 29.59 in North 5 mph 8 mph 78% 0.00 in 111 W/m2
19:30 52 °F 45.7 °F 29.59 in ENE 4 mph 4 mph 79% 0.00 in 120 W/m2
19:35 51.9 °F 45.6 °F 29.59 in East 4 mph 5 mph 79% 0.00 in 91 W/m2
19:40 51.9 °F 45.9 °F 29.59 in NE 4 mph 5 mph 80% 0.00 in 39 W/m2
19:45 51.9 °F 45.9 °F 29.59 in ENE 3 mph 5 mph 80% 0.00 in 39 W/m2
19:50 52 °F 46.3 °F 29.59 in NE 3 mph 5 mph 81% 0.00 in 42 W/m2
19:55 52.2 °F 46.2 °F 29.59 in ENE 3 mph 5 mph 80% 0.00 in 67 W/m2
20:00 52.6 °F 46.6 °F 29.59 in ENE 4 mph 4 mph 80% 0.00 in 77 W/m2
20:05 52.9 °F 46.9 °F 29.60 in ENE 4 mph 4 mph 80% 0.00 in 53 W/m2
20:10 53.4 °F 47 °F 29.60 in NE 3 mph 3 mph 79% 0.00 in 39 W/m2
20:15 53.8 °F 47.4 °F 29.60 in ENE 3 mph 3 mph 79% 0.00 in 30 W/m2
20:20 54.1 °F 47.4 °F 29.60 in SE 3 mph 3 mph 78% 0.00 in 14 W/m2
20:25 54.2 °F 47.1 °F 29.60 in ENE 3 mph 4 mph 77% 0.00 in 9 W/m2
20:30 54.2 °F 46.8 °F 29.60 in NE 3 mph 3 mph 76% 0.00 in 5 W/m2
20:35 54.3 °F 46.9 °F 29.60 in ENE 3 mph 3 mph 76% 0.00 in 0 W/m2
20:40 54.2 °F 46.8 °F 29.61 in East 3 mph 3 mph 76% 0.00 in 0 W/m2
20:45 54.3 °F 46.9 °F 29.61 in East 3 mph 6 mph 76% 0.00 in 0 W/m2
20:50 54.3 °F 46.5 °F 29.61 in ENE 3 mph 3 mph 75% 0.00 in 0 W/m2
20:55 54.3 °F 46.5 °F 29.62 in NNE 3 mph 3 mph 75% 0.00 in 0 W/m2
21:00 54.3 °F 46.9 °F 29.62 in North 2 mph 2 mph 76% 0.00 in 0 W/m2
21:05 54.2 °F 46.8 °F 29.63 in NE 2 mph 6 mph 76% 0.00 in 0 W/m2
21:10 54.1 °F 46.7 °F 29.63 in NE 2 mph 3 mph 76% 0.00 in 0 W/m2
21:15 54 °F 47 °F 29.63 in ENE 3 mph 3 mph 77% 0.00 in 0 W/m2
21:20 53.9 °F 46.9 °F 29.63 in ESE 3 mph 4 mph 77% 0.00 in 0 W/m2
21:25 53.9 °F 46.9 °F 29.63 in NNE 3 mph 4 mph 77% 0.00 in 0 W/m2
21:30 53.9 °F 46.9 °F 29.63 in ENE 3 mph 3 mph 77% 0.00 in 0 W/m2
21:35 53.8 °F 47.1 °F 29.63 in NE 2 mph 3 mph 78% 0.00 in 0 W/m2
21:40 53.7 °F 47 °F 29.63 in ENE 2 mph 2 mph 78% 0.00 in 0 W/m2
21:45 53.2 °F 46.2 °F 29.62 in NE 3 mph 3 mph 77% 0.00 in 0 W/m2
21:50 52.4 °F 45.4 °F 29.62 in SE 3 mph 14 mph 77% 0.00 in 0 W/m2
21:55 51.4 °F 44.8 °F 29.63 in NW 4 mph 14 mph 78% 0.00 in 0 W/m2
22:00 50.5 °F 44.6 °F 29.63 in ENE 5 mph 5 mph 80% 0.00 in 0 W/m2
22:05 50 °F 44.4 °F 29.63 in East 5 mph 5 mph 81% 0.00 in 0 W/m2
22:10 49.8 °F 44.5 °F 29.64 in East 3 mph 3 mph 82% 0.00 in 0 W/m2
22:15 49.6 °F 44.6 °F 29.63 in ENE 3 mph 4 mph 83% 0.00 in 0 W/m2
22:20 49.5 °F 44.9 °F 29.62 in NE 3 mph 3 mph 84% 0.00 in 0 W/m2
22:25 49.5 °F 45.2 °F 29.61 in NE 3 mph 3 mph 85% 0.00 in 0 W/m2
22:30 49.6 °F 45.6 °F 29.61 in NE 2 mph 2 mph 86% 0.00 in 0 W/m2
22:35 50 °F 46 °F 29.61 in East 2 mph 3 mph 86% 0.00 in 0 W/m2
22:40 50.3 °F 46.6 °F 29.62 in ESE 3 mph 4 mph 87% 0.00 in 0 W/m2
22:45 50.7 °F 47 °F 29.62 in ENE 3 mph 7 mph 87% 0.00 in 0 W/m2
22:50 51.3 °F 47.6 °F 29.61 in East 4 mph 4 mph 87% 0.00 in 0 W/m2
22:55 51.8 °F 47.4 °F 29.61 in NE 4 mph 4 mph 85% 0.00 in 0 W/m2
23:00 52.2 °F 47.5 °F 29.62 in East 3 mph 3 mph 84% 0.00 in 0 W/m2
23:05 52.9 °F 47.9 °F 29.62 in East 4 mph 4 mph 83% 0.00 in 0 W/m2
23:10 53.5 °F 47.8 °F 29.61 in ENE 5 mph 5 mph 81% 0.00 in 0 W/m2
23:15 54.2 °F 48.2 °F 29.61 in ESE 5 mph 5 mph 80% 0.00 in 0 W/m2
23:20 54.6 °F 48.2 °F 29.61 in East 4 mph 4 mph 79% 0.00 in 0 W/m2
23:25 54.9 °F 48.5 °F 29.61 in East 4 mph 4 mph 79% 0.00 in 0 W/m2
23:30 55.1 °F 48.7 °F 29.62 in ESE 4 mph 6 mph 79% 0.00 in 0 W/m2
23:35 55.3 °F 48.9 °F 29.61 in ENE 4 mph 6 mph 79% 0.00 in 0 W/m2
23:40 55.4 °F 48.7 °F 29.62 in ENE 4 mph 4 mph 78% 0.00 in 0 W/m2
23:45 55.4 °F 48.7 °F 29.62 in ENE 3 mph 5 mph 78% 0.00 in 0 W/m2
23:50 55.5 °F 48.8 °F 29.62 in ENE 4 mph 8 mph 78% 0.00 in 0 W/m2
23:55 55.7 °F 48.9 °F 29.63 in NE 4 mph 8 mph 78% 0.00 in 0 W/m2
Sand Point, Michigan, USA
Compliments of Weather Underground - 2 mb